createdAt,value
2023-04-01T00:01:34.051Z,9.85
2023-04-01T00:04:36.222Z,9.89
2023-04-01T00:07:39.370Z,9.99
2023-04-01T00:10:41.452Z,9.88
2023-04-01T00:13:44.222Z,10.00
2023-04-01T00:16:46.110Z,10.08
2023-04-01T00:19:48.080Z,9.93
2023-04-01T00:22:50.222Z,9.91
2023-04-01T00:25:52.140Z,9.80
2023-04-01T00:28:54.390Z,9.75
2023-04-01T00:31:57.003Z,9.84
2023-04-01T00:35:00.591Z,9.83
2023-04-01T00:38:02.790Z,9.78
2023-04-01T00:41:05.750Z,9.76
2023-04-01T00:44:25.133Z,9.51
2023-04-01T00:47:28.557Z,9.48
2023-04-01T00:50:32.657Z,9.57
2023-04-01T00:53:39.366Z,9.47
2023-04-01T00:56:49.754Z,9.64
2023-04-01T00:59:55.188Z,9.75
2023-04-01T01:03:12.646Z,9.78
2023-04-01T01:06:24.236Z,9.77
2023-04-01T01:10:03.875Z,9.72
2023-04-01T01:13:05.986Z,9.69
2023-04-01T01:16:24.672Z,9.70
2023-04-01T01:19:51.425Z,9.63
2023-04-01T01:23:12.216Z,9.72
2023-04-01T01:26:20.982Z,9.67
2023-04-01T01:30:00.603Z,9.66
2023-04-01T01:33:13.593Z,9.61
2023-04-01T01:36:18.948Z,9.65
2023-04-01T01:39:28.898Z,9.52
2023-04-01T01:42:34.470Z,9.63
2023-04-01T01:45:41.647Z,9.52
2023-04-01T01:48:45.750Z,9.55
2023-04-01T01:51:49.171Z,9.61
2023-04-01T01:54:53.258Z,9.63
2023-04-01T01:58:03.746Z,9.57
2023-04-01T02:01:09.802Z,9.54
2023-04-01T02:04:14.267Z,9.49
2023-04-01T02:07:28.439Z,9.49
2023-04-01T02:10:35.064Z,9.42
2023-04-01T02:13:50.741Z,9.32
2023-04-01T02:17:01.138Z,9.35
2023-04-01T02:20:08.789Z,9.16
2023-04-01T02:23:11.901Z,9.09
2023-04-01T02:26:15.791Z,9.10
2023-04-01T02:29:20.477Z,9.06
2023-04-01T02:32:22.878Z,8.99
2023-04-01T02:35:26.321Z,8.89
2023-04-01T02:38:28.359Z,8.72
2023-04-01T02:41:30.345Z,8.79
2023-04-01T02:44:32.724Z,8.82
2023-04-01T02:47:34.629Z,8.76
2023-04-01T02:50:37.214Z,8.68
2023-04-01T02:53:39.067Z,8.59
2023-04-01T02:56:41.033Z,8.65
2023-04-01T02:59:42.931Z,8.71
2023-04-01T03:02:45.418Z,8.70
2023-04-01T03:05:47.367Z,8.58
2023-04-01T03:08:49.340Z,8.64
2023-04-01T03:11:52.113Z,8.64
2023-04-01T03:14:54.151Z,8.62
2023-04-01T03:17:56.182Z,8.59
2023-04-01T03:20:58.222Z,8.50
2023-04-01T03:24:06.207Z,8.35
2023-04-01T03:27:08.041Z,8.38
2023-04-01T03:30:10.704Z,8.28
2023-04-01T03:33:20.967Z,8.28
2023-04-01T03:36:23.587Z,8.18
2023-04-01T03:39:26.277Z,8.16
2023-04-01T03:42:28.466Z,8.02
2023-04-01T03:45:30.674Z,7.99
2023-04-01T03:48:32.810Z,8.00
2023-04-01T03:51:34.900Z,8.10
2023-04-01T03:54:36.984Z,8.08
2023-04-01T03:57:38.886Z,7.95
2023-04-01T04:00:50.540Z,7.82
2023-04-01T04:03:52.655Z,7.76
2023-04-01T04:06:56.122Z,7.69
2023-04-01T04:09:59.139Z,7.54
2023-04-01T04:13:01.064Z,7.53
2023-04-01T04:16:05.938Z,7.52
2023-04-01T04:19:09.123Z,7.60
2023-04-01T04:22:11.269Z,7.73
2023-04-01T04:25:13.225Z,7.82
2023-04-01T04:28:15.143Z,7.84
2023-04-01T04:31:22.520Z,7.83
2023-04-01T04:34:25.754Z,7.52
2023-04-01T04:37:28.128Z,7.57
2023-04-01T04:40:30.395Z,7.39
2023-04-01T04:43:32.348Z,7.32
2023-04-01T04:46:42.214Z,6.97
2023-04-01T04:49:49.866Z,7.07
2023-04-01T04:52:52.158Z,7.29
2023-04-01T04:55:54.824Z,7.32
2023-04-01T04:59:16.974Z,7.56
2023-04-01T05:02:26.061Z,7.81
2023-04-01T05:05:28.333Z,8.00
2023-04-01T05:08:30.341Z,8.06
2023-04-01T05:11:32.333Z,8.19
2023-04-01T05:14:34.243Z,7.81
2023-04-01T05:17:49.022Z,7.91
2023-04-01T05:20:53.905Z,8.13
2023-04-01T05:23:56.039Z,8.33
2023-04-01T05:27:00.599Z,8.67
2023-04-01T05:30:03.891Z,8.66
2023-04-01T05:33:19.761Z,8.71
2023-04-01T05:36:22.090Z,8.96
2023-04-01T05:39:24.574Z,9.19
2023-04-01T05:42:26.924Z,9.32
2023-04-01T05:45:43.604Z,8.82
2023-04-01T05:48:48.468Z,9.23
2023-04-01T05:51:52.221Z,9.43
2023-04-01T05:54:54.350Z,9.25
2023-04-01T05:57:56.268Z,9.02
2023-04-01T06:01:09.346Z,8.74
2023-04-01T06:04:17.256Z,8.64
2023-04-01T06:07:20.470Z,8.40
2023-04-01T06:10:26.532Z,8.86
2023-04-01T06:13:43.281Z,9.18
2023-04-01T06:17:25.231Z,9.17
2023-04-01T06:20:43.324Z,9.37
2023-04-01T06:24:00.575Z,9.28
2023-04-01T06:27:26.895Z,9.56
2023-04-01T06:30:32.273Z,9.66
2023-04-01T06:33:43.864Z,10.02
2023-04-01T06:37:12.000Z,10.37
2023-04-01T06:40:22.861Z,10.71
2023-04-01T06:43:53.039Z,10.83
2023-04-01T06:47:43.059Z,10.84
2023-04-01T06:51:15.111Z,10.80
2023-04-01T06:54:39.658Z,11.10
2023-04-01T06:57:54.104Z,10.74
2023-04-01T07:01:00.510Z,10.09
2023-04-01T07:04:05.926Z,10.61
2023-04-01T07:07:36.511Z,10.80
2023-04-01T07:10:46.713Z,11.26
2023-04-01T07:14:30.045Z,11.09
2023-04-01T07:17:36.487Z,11.31
2023-04-01T07:20:39.322Z,11.35
2023-04-01T07:23:46.278Z,11.38
2023-04-01T07:27:17.432Z,11.33
2023-04-01T07:30:23.696Z,11.33
2023-04-01T07:33:42.862Z,11.41
2023-04-01T07:37:23.519Z,11.47
2023-04-01T07:40:41.465Z,11.70
2023-04-01T07:44:08.557Z,11.86
2023-04-01T07:47:30.298Z,11.89
2023-04-01T07:50:51.972Z,12.12
2023-04-01T07:54:12.743Z,11.86
2023-04-01T07:57:54.389Z,12.33
2023-04-01T08:01:18.696Z,12.45
2023-04-01T08:04:46.849Z,12.50
2023-04-01T08:08:11.149Z,12.83
2023-04-01T08:11:52.823Z,12.84
2023-04-01T08:15:22.366Z,12.72
2023-04-01T08:25:26.822Z,13.13
2023-04-01T09:06:12.517Z,13.42
2023-04-01T09:09:33.336Z,13.44
2023-04-01T09:12:43.414Z,13.38
2023-04-01T09:16:01.221Z,13.52
2023-04-01T09:19:23.240Z,13.88
2023-04-01T09:23:05.917Z,14.26
2023-04-01T09:26:35.918Z,14.40
2023-04-01T09:30:03.010Z,14.57
2023-04-01T09:33:11.614Z,14.64
2023-04-01T09:36:47.113Z,14.96
2023-04-01T09:40:00.436Z,15.08
2023-04-01T09:43:22.485Z,15.37
2023-04-01T09:47:02.300Z,15.13
2023-04-01T09:50:07.543Z,14.68
2023-04-01T09:53:25.878Z,14.53
2023-04-01T09:56:47.399Z,14.89
2023-04-01T10:00:16.755Z,14.85
2023-04-01T10:04:17.648Z,14.41
2023-04-01T10:07:37.810Z,14.84
2023-04-01T10:10:49.914Z,14.68
2023-04-01T10:14:18.726Z,14.68
2023-04-01T10:17:32.795Z,14.91
2023-04-01T10:21:02.671Z,14.25
2023-04-01T10:24:40.292Z,14.62
2023-04-01T10:27:59.557Z,15.46
2023-04-01T10:31:53.734Z,15.93
2023-04-01T10:35:21.410Z,15.49
2023-04-01T10:39:05.691Z,14.84
2023-04-01T10:42:20.229Z,15.40
2023-04-01T10:46:35.714Z,15.62
2023-04-01T10:50:12.024Z,15.36
2023-04-01T10:53:40.488Z,14.83
2023-04-01T10:57:30.726Z,15.24
2023-04-01T11:01:06.377Z,15.17
2023-04-01T11:05:14.530Z,16.00
2023-04-01T11:08:51.588Z,15.81
2023-04-01T11:12:06.178Z,16.40
2023-04-01T11:15:27.425Z,15.90
2023-04-01T11:19:09.601Z,15.75
2023-04-01T11:22:30.851Z,15.40
2023-04-01T11:25:57.000Z,15.71
2023-04-01T11:29:25.622Z,16.39
2023-04-01T11:32:51.394Z,16.88
2023-04-01T11:36:18.004Z,16.54
2023-04-01T11:39:38.959Z,15.97
2023-04-01T11:43:08.154Z,15.33
2023-04-01T11:46:51.628Z,15.16
2023-04-01T11:50:24.600Z,15.85
2023-04-01T11:53:31.248Z,16.14
2023-04-01T11:56:58.248Z,15.68
2023-04-01T12:00:17.993Z,15.61
2023-04-01T12:03:22.877Z,15.75
2023-04-01T12:06:25.093Z,15.72
2023-04-01T12:09:50.670Z,16.17
2023-04-01T12:13:01.966Z,16.32
2023-04-01T12:16:33.086Z,16.69
2023-04-01T12:20:07.060Z,16.13
2023-04-01T12:23:24.277Z,15.71
2023-04-01T12:26:50.971Z,15.72
2023-04-01T12:29:53.073Z,16.14
2023-04-01T12:33:25.078Z,15.93
2023-04-01T12:36:53.258Z,15.86
2023-04-01T12:40:10.121Z,15.89
2023-04-01T12:43:27.270Z,15.26
2023-04-01T12:46:33.562Z,15.20
2023-04-01T12:50:14.364Z,15.20
2023-04-01T12:53:35.816Z,15.32
2023-04-01T12:57:14.948Z,15.13
2023-04-01T13:00:47.481Z,15.25
2023-04-01T13:04:20.782Z,15.14
2023-04-01T13:07:51.048Z,14.89
2023-04-01T13:11:14.944Z,14.93
2023-04-01T13:14:34.731Z,15.04
2023-04-01T13:18:08.997Z,15.03
2023-04-01T13:21:29.754Z,14.98
2023-04-01T13:24:53.270Z,15.00
2023-04-01T13:28:05.966Z,14.91
2023-04-01T13:31:54.359Z,15.14
2023-04-01T13:35:27.709Z,15.37
2023-04-01T13:38:38.466Z,15.27
2023-04-01T13:41:43.494Z,15.26
2023-04-01T13:44:48.350Z,15.26
2023-04-01T13:48:27.700Z,15.08
2023-04-01T13:51:41.729Z,15.11
2023-04-01T13:54:59.790Z,15.09
2023-04-01T13:58:32.341Z,14.92
2023-04-01T14:01:55.637Z,14.85
2023-04-01T14:05:06.092Z,15.06
2023-04-01T14:08:45.472Z,15.13
2023-04-01T14:12:12.851Z,14.91
2023-04-01T14:15:23.765Z,14.96
2023-04-01T14:18:41.578Z,14.80
2023-04-01T14:21:58.695Z,14.76
2023-04-01T14:25:28.535Z,14.88
2023-04-01T14:29:02.859Z,15.10
2023-04-01T14:32:18.046Z,14.63
2023-04-01T14:35:35.074Z,14.29
2023-04-01T14:38:58.760Z,14.21
2023-04-01T14:42:22.076Z,13.81
2023-04-01T14:46:00.753Z,13.08
2023-04-01T14:49:21.194Z,12.21
2023-04-01T14:52:35.145Z,11.88
2023-04-01T14:55:40.378Z,12.04
2023-04-01T14:58:46.436Z,12.53
2023-04-01T15:02:23.313Z,12.72
2023-04-01T15:05:37.299Z,12.97
2023-04-01T15:09:00.455Z,13.07
2023-04-01T15:12:12.390Z,12.98
2023-04-01T15:15:20.238Z,13.08
2023-04-01T15:18:48.427Z,13.03
2023-04-01T15:22:11.156Z,13.11
2023-04-01T15:26:03.794Z,13.47
2023-04-01T15:29:49.048Z,13.25
2023-04-01T15:33:04.977Z,13.18
2023-04-01T15:36:21.644Z,13.40
2023-04-01T15:39:29.245Z,13.50
2023-04-01T15:42:52.505Z,13.36
2023-04-01T15:46:19.902Z,13.27
2023-04-01T15:49:53.166Z,13.37
2023-04-01T15:53:11.010Z,13.43
2023-04-01T15:56:27.875Z,13.44
2023-04-01T15:59:51.017Z,13.53
2023-04-01T16:03:17.163Z,13.49
2023-04-01T16:06:35.303Z,13.45
2023-04-01T16:09:52.323Z,13.40
2023-04-01T16:13:10.976Z,13.14
2023-04-01T16:16:36.565Z,13.29
2023-04-01T16:19:52.647Z,13.24
2023-04-01T16:23:02.856Z,13.20
2023-04-01T16:26:16.875Z,13.17
2023-04-01T16:29:28.056Z,13.05
2023-04-01T16:32:36.013Z,12.97
2023-04-01T16:36:01.932Z,12.87
2023-04-01T16:39:44.618Z,12.80
2023-04-01T16:43:15.651Z,12.68
2023-04-01T16:46:39.574Z,12.60
2023-04-01T16:49:50.308Z,12.50
2023-04-01T16:53:09.131Z,12.36
2023-04-01T16:56:24.944Z,12.40
2023-04-01T16:59:45.976Z,12.49
2023-04-01T17:02:56.193Z,12.41
2023-04-01T17:06:29.011Z,12.27
2023-04-01T17:09:40.832Z,12.08
2023-04-01T17:13:07.230Z,12.03
2023-04-01T17:16:40.099Z,12.01
2023-04-01T17:20:00.873Z,11.92
2023-04-01T17:23:12.360Z,11.82
2023-04-01T17:26:32.716Z,11.72
2023-04-01T17:29:59.393Z,11.71
2023-04-01T17:34:00.314Z,11.75
2023-04-01T17:37:32.897Z,12.15
2023-04-01T17:40:58.720Z,12.32
2023-04-01T17:44:06.212Z,12.34
2023-04-01T17:47:26.694Z,12.34
2023-04-01T17:50:50.108Z,12.14
2023-04-01T17:54:21.920Z,11.96
2023-04-01T17:57:42.429Z,11.76
2023-04-01T18:01:06.267Z,11.61
2023-04-01T18:04:18.735Z,11.48
2023-04-01T18:07:51.205Z,11.32
2023-04-01T18:10:53.245Z,11.22
2023-04-01T18:14:17.101Z,11.20
2023-04-01T18:17:27.161Z,11.10
2023-04-01T18:20:38.736Z,11.03
2023-04-01T18:24:02.274Z,11.16
2023-04-01T18:27:31.352Z,11.13
2023-04-01T18:45:51.835Z,11.63
2023-04-01T18:48:56.559Z,11.50
2023-04-01T18:52:05.670Z,11.35
2023-04-01T18:55:17.008Z,11.29
2023-04-01T18:59:03.748Z,11.25
2023-04-01T19:02:21.754Z,11.11
2023-04-01T19:05:37.756Z,11.05
2023-04-01T19:08:42.755Z,11.17
2023-04-01T19:12:08.679Z,11.00
2023-04-01T19:15:23.099Z,11.23
2023-04-01T19:18:50.002Z,11.17
2023-04-01T19:22:30.464Z,11.24
2023-04-01T19:25:43.391Z,11.34
2023-04-01T19:29:01.515Z,11.32
2023-04-01T19:32:34.588Z,11.66
2023-04-01T19:35:59.461Z,11.70
2023-04-01T19:39:07.674Z,11.73
2023-04-01T19:42:52.188Z,11.78
2023-04-01T19:46:15.894Z,11.65
2023-04-01T19:49:21.099Z,11.59
2023-04-01T19:52:37.001Z,11.53
2023-04-01T19:55:47.497Z,11.45
2023-04-01T19:59:10.585Z,11.42
2023-04-01T20:02:16.657Z,11.39
2023-04-01T20:05:37.290Z,11.30
2023-04-01T20:08:59.714Z,11.26
2023-04-01T20:12:16.935Z,11.24
2023-04-01T20:15:36.815Z,11.12
2023-04-01T20:18:48.249Z,11.04
2023-04-01T20:21:51.495Z,10.88
2023-04-01T20:24:58.473Z,10.84
2023-04-01T20:28:15.001Z,10.72
2023-04-01T20:31:30.946Z,10.72
2023-04-01T20:34:55.142Z,10.87
2023-04-01T20:38:34.676Z,10.98
2023-04-01T20:41:58.198Z,10.79
2023-04-01T20:45:39.131Z,10.77
2023-04-01T20:48:44.003Z,10.79
2023-04-01T20:52:13.853Z,10.67
2023-04-01T20:55:37.595Z,10.66
2023-04-01T20:59:17.077Z,10.59
2023-04-01T21:02:52.213Z,10.64
2023-04-01T21:06:00.656Z,10.51
2023-04-01T21:09:23.970Z,10.39
2023-04-01T21:12:37.756Z,10.29
2023-04-01T21:16:09.758Z,10.32
2023-04-01T21:19:30.501Z,10.34
2023-04-01T21:23:10.906Z,10.33
2023-04-01T21:26:15.531Z,10.45
2023-04-01T21:29:35.991Z,10.47
2023-04-01T21:32:52.583Z,10.59
2023-04-01T21:36:07.825Z,10.10
2023-04-01T21:39:25.010Z,10.09
2023-04-01T21:42:33.935Z,9.94
2023-04-01T21:45:49.387Z,9.62
2023-04-01T21:49:17.597Z,9.54
2023-04-01T21:52:28.105Z,9.40
2023-04-01T21:55:41.396Z,9.30
2023-04-01T21:59:02.610Z,9.35
2023-04-01T22:02:52.412Z,9.46
2023-04-01T22:05:54.271Z,9.57
2023-04-01T22:09:19.282Z,9.58
2023-04-01T22:12:41.142Z,9.66
2023-04-01T22:15:58.557Z,9.87
2023-04-01T22:19:07.056Z,9.73
2023-04-01T22:22:22.280Z,9.72
2023-04-01T22:25:38.386Z,9.69
2023-04-01T22:28:42.915Z,9.76
2023-04-01T22:31:44.900Z,9.74
2023-04-01T22:34:55.747Z,9.88
2023-04-01T22:38:14.064Z,10.03
2023-04-01T22:41:19.005Z,10.15
2023-04-01T22:45:05.413Z,10.24
2023-04-01T22:48:23.520Z,10.06
2023-04-01T22:51:52.615Z,10.01
2023-04-01T22:54:59.276Z,9.76
2023-04-01T22:58:05.994Z,9.73
2023-04-01T23:01:15.659Z,9.58
2023-04-01T23:04:24.414Z,9.53
2023-04-01T23:07:47.351Z,9.38
2023-04-01T23:10:53.760Z,9.47
2023-04-01T23:14:22.024Z,9.62
2023-04-01T23:17:43.305Z,9.58
2023-04-01T23:21:08.512Z,9.72
2023-04-01T23:24:49.068Z,9.72
2023-04-01T23:28:26.787Z,9.73
2023-04-01T23:31:35.989Z,9.84
2023-04-01T23:34:38.070Z,9.88
2023-04-01T23:37:40.103Z,10.04
2023-04-01T23:40:42.427Z,10.06
2023-04-01T23:43:46.478Z,10.19
2023-04-01T23:46:50.004Z,10.13
2023-04-01T23:49:56.040Z,10.23
2023-04-01T23:53:29.203Z,10.19
2023-04-01T23:56:53.222Z,10.36
